sensor_id;sensor_type;location;lat;lon;timestamp;temperature;humidity
25328;DHT22;13279;51.300;12.394;2023-05-19T00:00:26;12.30;99.90
25328;DHT22;13279;51.300;12.394;2023-05-19T00:03:03;12.20;99.90
25328;DHT22;13279;51.300;12.394;2023-05-19T00:05:44;12.30;99.90
25328;DHT22;13279;51.300;12.394;2023-05-19T00:08:18;12.30;99.90
25328;DHT22;13279;51.300;12.394;2023-05-19T00:10:58;12.30;99.90
25328;DHT22;13279;51.300;12.394;2023-05-19T00:13:38;12.20;99.90
25328;DHT22;13279;51.300;12.394;2023-05-19T00:16:34;12.20;99.90
25328;DHT22;13279;51.300;12.394;2023-05-19T00:19:21;12.20;99.90
25328;DHT22;13279;51.300;12.394;2023-05-19T00:21:56;12.20;99.90
25328;DHT22;13279;51.300;12.394;2023-05-19T00:24:33;12.10;99.90
25328;DHT22;13279;51.300;12.394;2023-05-19T00:27:12;12.10;99.90
25328;DHT22;13279;51.300;12.394;2023-05-19T00:29:52;12.10;99.90
25328;DHT22;13279;51.300;12.394;2023-05-19T00:32:33;12.00;99.90
25328;DHT22;13279;51.300;12.394;2023-05-19T00:35:11;12.00;99.90
25328;DHT22;13279;51.300;12.394;2023-05-19T00:37:51;12.00;99.90
25328;DHT22;13279;51.300;12.394;2023-05-19T00:40:24;12.00;99.90
25328;DHT22;13279;51.300;12.394;2023-05-19T00:42:59;11.90;99.90
25328;DHT22;13279;51.300;12.394;2023-05-19T00:45:38;11.80;99.90
25328;DHT22;13279;51.300;12.394;2023-05-19T00:48:15;11.80;99.90
25328;DHT22;13279;51.300;12.394;2023-05-19T00:51:11;11.80;99.90
25328;DHT22;13279;51.300;12.394;2023-05-19T00:54:00;11.70;99.90
25328;DHT22;13279;51.300;12.394;2023-05-19T00:56:40;11.70;99.90
25328;DHT22;13279;51.300;12.394;2023-05-19T00:59:25;11.60;99.90
25328;DHT22;13279;51.300;12.394;2023-05-19T01:02:18;11.70;99.90
25328;DHT22;13279;51.300;12.394;2023-05-19T01:05:07;11.60;99.90
25328;DHT22;13279;51.300;12.394;2023-05-19T01:07:59;11.60;99.90
25328;DHT22;13279;51.300;12.394;2023-05-19T01:10:41;11.60;99.90
25328;DHT22;13279;51.300;12.394;2023-05-19T01:13:27;11.50;99.90
25328;DHT22;13279;51.300;12.394;2023-05-19T01:16:28;11.50;99.90
25328;DHT22;13279;51.300;12.394;2023-05-19T01:19:25;11.50;99.90
25328;DHT22;13279;51.300;12.394;2023-05-19T01:22:17;11.60;99.90
25328;DHT22;13279;51.300;12.394;2023-05-19T01:25:24;11.40;99.90
25328;DHT22;13279;51.300;12.394;2023-05-19T01:31:14;11.40;99.90
25328;DHT22;13279;51.300;12.394;2023-05-19T01:33:57;11.30;99.90
25328;DHT22;13279;51.300;12.394;2023-05-19T01:36:35;11.30;99.90
25328;DHT22;13279;51.300;12.394;2023-05-19T01:39:15;11.30;99.90
25328;DHT22;13279;51.300;12.394;2023-05-19T01:41:54;11.20;99.90
25328;DHT22;13279;51.300;12.394;2023-05-19T01:44:33;11.20;99.90
25328;DHT22;13279;51.300;12.394;2023-05-19T01:47:27;11.20;1.00
25328;DHT22;13279;51.300;12.394;2023-05-19T01:50:13;11.20;1.00
25328;DHT22;13279;51.300;12.394;2023-05-19T01:52:44;11.20;1.00
25328;DHT22;13279;51.300;12.394;2023-05-19T01:55:26;11.20;1.00
25328;DHT22;13279;51.300;12.394;2023-05-19T01:58:09;11.10;1.00
25328;DHT22;13279;51.300;12.394;2023-05-19T02:01:05;11.10;1.00
25328;DHT22;13279;51.300;12.394;2023-05-19T02:04:06;11.10;6.30
25328;DHT22;13279;51.300;12.394;2023-05-19T02:06:52;11.10;87.00
25328;DHT22;13279;51.300;12.394;2023-05-19T02:09:36;11.10;99.90
25328;DHT22;13279;51.300;12.394;2023-05-19T02:12:24;11.00;99.90
25328;DHT22;13279;51.300;12.394;2023-05-19T02:15:04;11.10;99.90
25328;DHT22;13279;51.300;12.394;2023-05-19T02:17:40;11.00;99.90
25328;DHT22;13279;51.300;12.394;2023-05-19T02:20:22;11.00;99.90
25328;DHT22;13279;51.300;12.394;2023-05-19T02:23:02;10.90;99.90
25328;DHT22;13279;51.300;12.394;2023-05-19T02:25:40;10.90;1.00
25328;DHT22;13279;51.300;12.394;2023-05-19T02:28:31;10.90;1.00
25328;DHT22;13279;51.300;12.394;2023-05-19T02:31:05;10.80;1.00
25328;DHT22;13279;51.300;12.394;2023-05-19T02:33:42;10.80;1.00
25328;DHT22;13279;51.300;12.394;2023-05-19T02:36:22;10.80;1.00
25328;DHT22;13279;51.300;12.394;2023-05-19T02:38:59;10.80;1.00
25328;DHT22;13279;51.300;12.394;2023-05-19T02:41:35;10.80;1.00
25328;DHT22;13279;51.300;12.394;2023-05-19T02:44:05;10.70;1.00
25328;DHT22;13279;51.300;12.394;2023-05-19T02:46:37;10.70;1.00
25328;DHT22;13279;51.300;12.394;2023-05-19T02:49:17;10.70;1.00
25328;DHT22;13279;51.300;12.394;2023-05-19T02:52:02;10.70;1.00
25328;DHT22;13279;51.300;12.394;2023-05-19T02:57:28;10.80;1.00
25328;DHT22;13279;51.300;12.394;2023-05-19T03:00:08;10.70;1.00
25328;DHT22;13279;51.300;12.394;2023-05-19T03:02:45;10.70;1.00
25328;DHT22;13279;51.300;12.394;2023-05-19T03:05:20;10.70;1.00
25328;DHT22;13279;51.300;12.394;2023-05-19T03:07:59;10.60;1.00
25328;DHT22;13279;51.300;12.394;2023-05-19T03:10:36;10.60;1.00
25328;DHT22;13279;51.300;12.394;2023-05-19T03:13:07;10.60;1.00
25328;DHT22;13279;51.300;12.394;2023-05-19T03:15:44;10.60;1.00
25328;DHT22;13279;51.300;12.394;2023-05-19T03:18:22;10.50;1.00
25328;DHT22;13279;51.300;12.394;2023-05-19T03:21:09;10.50;90.40
25328;DHT22;13279;51.300;12.394;2023-05-19T03:23:45;10.50;99.90
25328;DHT22;13279;51.300;12.394;2023-05-19T03:26:27;10.50;99.90
25328;DHT22;13279;51.300;12.394;2023-05-19T03:29:05;10.40;99.90
25328;DHT22;13279;51.300;12.394;2023-05-19T03:31:39;10.30;99.90
25328;DHT22;13279;51.300;12.394;2023-05-19T03:34:23;10.30;99.90
25328;DHT22;13279;51.300;12.394;2023-05-19T03:37:03;10.20;99.90
25328;DHT22;13279;51.300;12.394;2023-05-19T03:39:45;10.20;99.90
25328;DHT22;13279;51.300;12.394;2023-05-19T03:42:16;10.20;99.90
25328;DHT22;13279;51.300;12.394;2023-05-19T03:44:52;10.10;99.90
25328;DHT22;13279;51.300;12.394;2023-05-19T03:47:23;10.20;99.90
25328;DHT22;13279;51.300;12.394;2023-05-19T03:50:14;10.20;99.90
25328;DHT22;13279;51.300;12.394;2023-05-19T03:52:54;10.10;99.90
25328;DHT22;13279;51.300;12.394;2023-05-19T03:55:45;10.10;99.90
25328;DHT22;13279;51.300;12.394;2023-05-19T03:58:23;10.10;99.90
25328;DHT22;13279;51.300;12.394;2023-05-19T04:00:53;10.10;99.90
25328;DHT22;13279;51.300;12.394;2023-05-19T04:03:25;10.10;99.90
25328;DHT22;13279;51.300;12.394;2023-05-19T04:05:57;10.10;99.90
25328;DHT22;13279;51.300;12.394;2023-05-19T04:08:37;10.20;99.90
25328;DHT22;13279;51.300;12.394;2023-05-19T04:11:14;10.20;99.90
25328;DHT22;13279;51.300;12.394;2023-05-19T04:13:52;10.10;99.90
25328;DHT22;13279;51.300;12.394;2023-05-19T04:16:26;10.20;1.00
25328;DHT22;13279;51.300;12.394;2023-05-19T04:18:58;10.10;1.00
25328;DHT22;13279;51.300;12.394;2023-05-19T04:21:36;10.20;1.00
25328;DHT22;13279;51.300;12.394;2023-05-19T04:24:15;10.20;1.00
25328;DHT22;13279;51.300;12.394;2023-05-19T04:27:00;10.20;1.00
25328;DHT22;13279;51.300;12.394;2023-05-19T04:29:39;10.30;1.00
25328;DHT22;13279;51.300;12.394;2023-05-19T04:32:14;10.20;1.00
25328;DHT22;13279;51.300;12.394;2023-05-19T04:34:43;10.20;1.00
25328;DHT22;13279;51.300;12.394;2023-05-19T04:37:14;10.20;1.00
25328;DHT22;13279;51.300;12.394;2023-05-19T04:39:42;10.30;1.00
25328;DHT22;13279;51.300;12.394;2023-05-19T04:42:13;10.30;1.00
25328;DHT22;13279;51.300;12.394;2023-05-19T04:44:44;10.30;1.00
25328;DHT22;13279;51.300;12.394;2023-05-19T04:47:14;10.40;1.00
25328;DHT22;13279;51.300;12.394;2023-05-19T04:49:43;10.40;1.00
25328;DHT22;13279;51.300;12.394;2023-05-19T04:52:10;10.40;1.00
25328;DHT22;13279;51.300;12.394;2023-05-19T04:54:39;10.40;1.00
25328;DHT22;13279;51.300;12.394;2023-05-19T04:57:09;10.50;1.00
25328;DHT22;13279;51.300;12.394;2023-05-19T04:59:40;10.50;1.00
25328;DHT22;13279;51.300;12.394;2023-05-19T05:02:09;10.60;1.00
25328;DHT22;13279;51.300;12.394;2023-05-19T05:04:36;10.60;1.00
25328;DHT22;13279;51.300;12.394;2023-05-19T05:07:07;10.70;1.00
25328;DHT22;13279;51.300;12.394;2023-05-19T05:09:35;10.70;1.00
25328;DHT22;13279;51.300;12.394;2023-05-19T05:12:04;10.70;1.00
25328;DHT22;13279;51.300;12.394;2023-05-19T05:14:35;10.80;1.00
25328;DHT22;13279;51.300;12.394;2023-05-19T05:17:08;10.80;1.00
25328;DHT22;13279;51.300;12.394;2023-05-19T05:19:36;10.90;99.90
25328;DHT22;13279;51.300;12.394;2023-05-19T05:22:05;10.90;99.90
25328;DHT22;13279;51.300;12.394;2023-05-19T05:24:36;10.90;1.00
25328;DHT22;13279;51.300;12.394;2023-05-19T05:27:04;11.00;99.90
25328;DHT22;13279;51.300;12.394;2023-05-19T05:29:33;11.10;1.00
25328;DHT22;13279;51.300;12.394;2023-05-19T05:32:04;11.20;99.90
25328;DHT22;13279;51.300;12.394;2023-05-19T05:34:33;11.30;99.90
25328;DHT22;13279;51.300;12.394;2023-05-19T05:37:04;11.40;99.90
25328;DHT22;13279;51.300;12.394;2023-05-19T05:39:33;11.50;99.90
25328;DHT22;13279;51.300;12.394;2023-05-19T05:42:00;11.60;99.90
25328;DHT22;13279;51.300;12.394;2023-05-19T05:44:27;11.70;99.90
25328;DHT22;13279;51.300;12.394;2023-05-19T05:47:02;11.70;99.90
25328;DHT22;13279;51.300;12.394;2023-05-19T05:49:32;11.80;99.90
25328;DHT22;13279;51.300;12.394;2023-05-19T05:52:04;11.90;99.90
25328;DHT22;13279;51.300;12.394;2023-05-19T05:54:38;11.90;99.90
25328;DHT22;13279;51.300;12.394;2023-05-19T05:57:08;12.00;99.90
25328;DHT22;13279;51.300;12.394;2023-05-19T05:59:35;12.10;99.90
25328;DHT22;13279;51.300;12.394;2023-05-19T06:02:03;12.10;99.90
25328;DHT22;13279;51.300;12.394;2023-05-19T06:04:34;12.10;99.90
25328;DHT22;13279;51.300;12.394;2023-05-19T06:07:03;12.20;99.90
25328;DHT22;13279;51.300;12.394;2023-05-19T06:09:34;12.30;99.90
25328;DHT22;13279;51.300;12.394;2023-05-19T06:12:05;12.30;94.50
25328;DHT22;13279;51.300;12.394;2023-05-19T06:14:38;12.30;99.90
25328;DHT22;13279;51.300;12.394;2023-05-19T06:17:27;12.30;99.90
25328;DHT22;13279;51.300;12.394;2023-05-19T06:19:55;12.30;99.90
25328;DHT22;13279;51.300;12.394;2023-05-19T06:22:24;12.30;99.90
25328;DHT22;13279;51.300;12.394;2023-05-19T06:24:53;12.30;99.90
25328;DHT22;13279;51.300;12.394;2023-05-19T06:27:20;12.30;99.90
25328;DHT22;13279;51.300;12.394;2023-05-19T06:29:49;12.40;99.90
25328;DHT22;13279;51.300;12.394;2023-05-19T06:32:16;12.40;99.90
25328;DHT22;13279;51.300;12.394;2023-05-19T06:34:44;12.50;99.90
25328;DHT22;13279;51.300;12.394;2023-05-19T06:37:21;12.60;99.90
25328;DHT22;13279;51.300;12.394;2023-05-19T06:39:50;12.80;99.90
25328;DHT22;13279;51.300;12.394;2023-05-19T06:42:18;13.00;99.90
25328;DHT22;13279;51.300;12.394;2023-05-19T06:44:55;13.30;99.90
25328;DHT22;13279;51.300;12.394;2023-05-19T06:47:23;13.40;1.00
25328;DHT22;13279;51.300;12.394;2023-05-19T06:49:50;13.50;1.00
25328;DHT22;13279;51.300;12.394;2023-05-19T06:52:24;13.70;1.00
25328;DHT22;13279;51.300;12.394;2023-05-19T06:54:52;14.00;1.00
25328;DHT22;13279;51.300;12.394;2023-05-19T06:57:19;14.00;1.00
25328;DHT22;13279;51.300;12.394;2023-05-19T06:59:47;14.10;1.00
25328;DHT22;13279;51.300;12.394;2023-05-19T07:02:15;14.40;1.00
25328;DHT22;13279;51.300;12.394;2023-05-19T07:04:42;14.40;1.00
25328;DHT22;13279;51.300;12.394;2023-05-19T07:07:13;14.40;1.00
25328;DHT22;13279;51.300;12.394;2023-05-19T07:09:43;14.60;1.00
25328;DHT22;13279;51.300;12.394;2023-05-19T07:12:10;14.40;1.00
25328;DHT22;13279;51.300;12.394;2023-05-19T07:14:38;14.50;1.00
25328;DHT22;13279;51.300;12.394;2023-05-19T07:17:06;14.40;1.00
25328;DHT22;13279;51.300;12.394;2023-05-19T07:19:36;14.50;1.00
25328;DHT22;13279;51.300;12.394;2023-05-19T07:22:03;14.60;1.00
25328;DHT22;13279;51.300;12.394;2023-05-19T07:24:31;14.70;99.90
25328;DHT22;13279;51.300;12.394;2023-05-19T07:27:00;14.80;1.00
25328;DHT22;13279;51.300;12.394;2023-05-19T07:29:28;14.90;99.90
25328;DHT22;13279;51.300;12.394;2023-05-19T07:31:55;14.90;99.90
25328;DHT22;13279;51.300;12.394;2023-05-19T07:34:23;15.10;99.90
25328;DHT22;13279;51.300;12.394;2023-05-19T07:36:54;15.10;99.90
25328;DHT22;13279;51.300;12.394;2023-05-19T07:39:21;15.30;99.90
25328;DHT22;13279;51.300;12.394;2023-05-19T07:41:53;15.20;1.00
25328;DHT22;13279;51.300;12.394;2023-05-19T07:44:21;15.50;1.00
25328;DHT22;13279;51.300;12.394;2023-05-19T07:46:49;15.60;1.00
25328;DHT22;13279;51.300;12.394;2023-05-19T07:49:17;15.70;99.90
25328;DHT22;13279;51.300;12.394;2023-05-19T07:51:45;15.90;99.90
25328;DHT22;13279;51.300;12.394;2023-05-19T07:54:12;16.30;1.00
25328;DHT22;13279;51.300;12.394;2023-05-19T07:56:40;16.40;1.00
25328;DHT22;13279;51.300;12.394;2023-05-19T07:59:07;16.50;99.90
25328;DHT22;13279;51.300;12.394;2023-05-19T08:01:36;16.80;99.90
25328;DHT22;13279;51.300;12.394;2023-05-19T08:04:04;17.00;99.90
25328;DHT22;13279;51.300;12.394;2023-05-19T08:06:32;17.20;17.70
25328;DHT22;13279;51.300;12.394;2023-05-19T08:09:01;17.20;1.00
25328;DHT22;13279;51.300;12.394;2023-05-19T08:11:30;16.70;1.00
25328;DHT22;13279;51.300;12.394;2023-05-19T08:13:57;16.50;69.00
25328;DHT22;13279;51.300;12.394;2023-05-19T08:16:25;16.70;45.50
25328;DHT22;13279;51.300;12.394;2023-05-19T08:18:54;16.40;17.00
25328;DHT22;13279;51.300;12.394;2023-05-19T08:21:22;16.20;1.00
25328;DHT22;13279;51.300;12.394;2023-05-19T08:23:50;16.00;13.70
25328;DHT22;13279;51.300;12.394;2023-05-19T08:26:18;15.80;99.90
25328;DHT22;13279;51.300;12.394;2023-05-19T08:28:46;15.80;99.90
25328;DHT22;13279;51.300;12.394;2023-05-19T08:31:14;15.80;99.90
25328;DHT22;13279;51.300;12.394;2023-05-19T08:33:43;15.80;99.90
25328;DHT22;13279;51.300;12.394;2023-05-19T08:36:12;16.10;99.90
25328;DHT22;13279;51.300;12.394;2023-05-19T08:38:40;16.10;1.00
25328;DHT22;13279;51.300;12.394;2023-05-19T08:41:07;16.40;1.00
25328;DHT22;13279;51.300;12.394;2023-05-19T08:43:35;16.70;1.00
25328;DHT22;13279;51.300;12.394;2023-05-19T08:46:04;17.00;1.00
25328;DHT22;13279;51.300;12.394;2023-05-19T08:48:34;17.30;1.00
25328;DHT22;13279;51.300;12.394;2023-05-19T08:51:12;17.50;1.00
25328;DHT22;13279;51.300;12.394;2023-05-19T08:53:46;17.40;99.90
25328;DHT22;13279;51.300;12.394;2023-05-19T08:56:17;17.10;99.90
25328;DHT22;13279;51.300;12.394;2023-05-19T08:58:48;17.20;99.90
25328;DHT22;13279;51.300;12.394;2023-05-19T09:01:17;17.30;99.90
25328;DHT22;13279;51.300;12.394;2023-05-19T09:03:46;17.60;99.90
25328;DHT22;13279;51.300;12.394;2023-05-19T09:06:15;17.60;99.90
25328;DHT22;13279;51.300;12.394;2023-05-19T09:08:43;17.70;19.90
25328;DHT22;13279;51.300;12.394;2023-05-19T09:11:12;17.50;1.00
25328;DHT22;13279;51.300;12.394;2023-05-19T09:13:39;17.30;1.00
25328;DHT22;13279;51.300;12.394;2023-05-19T09:16:07;17.10;1.00
25328;DHT22;13279;51.300;12.394;2023-05-19T09:18:37;17.00;1.00
25328;DHT22;13279;51.300;12.394;2023-05-19T09:21:06;17.00;1.00
25328;DHT22;13279;51.300;12.394;2023-05-19T09:23:37;17.00;1.00
25328;DHT22;13279;51.300;12.394;2023-05-19T09:26:05;17.00;1.00
25328;DHT22;13279;51.300;12.394;2023-05-19T09:28:34;17.00;99.90
25328;DHT22;13279;51.300;12.394;2023-05-19T09:31:04;16.80;1.00
25328;DHT22;13279;51.300;12.394;2023-05-19T09:33:33;16.60;99.90
25328;DHT22;13279;51.300;12.394;2023-05-19T09:36:02;16.50;1.00
25328;DHT22;13279;51.300;12.394;2023-05-19T09:38:30;16.50;1.00
25328;DHT22;13279;51.300;12.394;2023-05-19T09:41:00;16.50;1.00
25328;DHT22;13279;51.300;12.394;2023-05-19T09:43:28;16.60;1.00
25328;DHT22;13279;51.300;12.394;2023-05-19T09:45:58;16.70;1.00
25328;DHT22;13279;51.300;12.394;2023-05-19T09:48:27;16.90;1.00
25328;DHT22;13279;51.300;12.394;2023-05-19T09:50:55;17.30;1.00
25328;DHT22;13279;51.300;12.394;2023-05-19T09:53:23;17.70;1.00
25328;DHT22;13279;51.300;12.394;2023-05-19T09:55:54;17.90;1.00
25328;DHT22;13279;51.300;12.394;2023-05-19T09:58:36;18.10;1.00
25328;DHT22;13279;51.300;12.394;2023-05-19T10:01:14;18.10;1.00
25328;DHT22;13279;51.300;12.394;2023-05-19T10:03:48;18.10;1.00
25328;DHT22;13279;51.300;12.394;2023-05-19T10:06:25;18.20;1.00
25328;DHT22;13279;51.300;12.394;2023-05-19T10:09:00;18.20;99.90
25328;DHT22;13279;51.300;12.394;2023-05-19T10:11:32;18.10;99.90
25328;DHT22;13279;51.300;12.394;2023-05-19T10:14:07;18.10;99.90
25328;DHT22;13279;51.300;12.394;2023-05-19T10:16:52;18.20;99.90
25328;DHT22;13279;51.300;12.394;2023-05-19T10:19:27;18.40;99.90
25328;DHT22;13279;51.300;12.394;2023-05-19T10:21:55;18.60;99.90
25328;DHT22;13279;51.300;12.394;2023-05-19T10:24:22;18.70;99.90
25328;DHT22;13279;51.300;12.394;2023-05-19T10:26:54;18.60;81.60
25328;DHT22;13279;51.300;12.394;2023-05-19T10:29:27;18.40;1.00
25328;DHT22;13279;51.300;12.394;2023-05-19T10:31:59;18.40;99.90
25328;DHT22;13279;51.300;12.394;2023-05-19T10:34:52;18.60;96.80
25328;DHT22;13279;51.300;12.394;2023-05-19T10:37:29;18.30;99.90
25328;DHT22;13279;51.300;12.394;2023-05-19T10:39:58;18.40;99.90
25328;DHT22;13279;51.300;12.394;2023-05-19T10:42:37;18.80;99.90
25328;DHT22;13279;51.300;12.394;2023-05-19T10:45:12;19.10;99.90
25328;DHT22;13279;51.300;12.394;2023-05-19T10:47:42;19.50;92.50
25328;DHT22;13279;51.300;12.394;2023-05-19T10:50:11;19.60;7.90
25328;DHT22;13279;51.300;12.394;2023-05-19T10:52:52;19.50;99.90
25328;DHT22;13279;51.300;12.394;2023-05-19T10:55:45;19.40;99.90
25328;DHT22;13279;51.300;12.394;2023-05-19T10:58:13;19.30;99.90
25328;DHT22;13279;51.300;12.394;2023-05-19T11:00:42;19.20;99.90
25328;DHT22;13279;51.300;12.394;2023-05-19T11:03:13;18.90;99.90
25328;DHT22;13279;51.300;12.394;2023-05-19T11:05:42;18.60;99.90
25328;DHT22;13279;51.300;12.394;2023-05-19T11:08:11;18.60;99.90
25328;DHT22;13279;51.300;12.394;2023-05-19T11:10:43;18.80;99.90
25328;DHT22;13279;51.300;12.394;2023-05-19T11:13:18;18.90;99.90
25328;DHT22;13279;51.300;12.394;2023-05-19T11:15:57;18.50;99.90
25328;DHT22;13279;51.300;12.394;2023-05-19T11:18:33;18.40;99.90
25328;DHT22;13279;51.300;12.394;2023-05-19T11:21:03;18.60;99.90
25328;DHT22;13279;51.300;12.394;2023-05-19T11:23:43;18.70;99.90
25328;DHT22;13279;51.300;12.394;2023-05-19T11:26:43;18.80;99.90
25328;DHT22;13279;51.300;12.394;2023-05-19T11:29:15;18.60;99.90
25328;DHT22;13279;51.300;12.394;2023-05-19T11:31:59;18.40;99.90
25328;DHT22;13279;51.300;12.394;2023-05-19T11:34:39;18.60;99.90
25328;DHT22;13279;51.300;12.394;2023-05-19T11:37:10;18.60;99.90
25328;DHT22;13279;51.300;12.394;2023-05-19T11:39:39;18.50;99.90
25328;DHT22;13279;51.300;12.394;2023-05-19T11:42:08;18.60;99.90
25328;DHT22;13279;51.300;12.394;2023-05-19T11:44:39;18.90;99.90
25328;DHT22;13279;51.300;12.394;2023-05-19T11:47:09;19.30;99.90
25328;DHT22;13279;51.300;12.394;2023-05-19T11:49:37;19.70;1.00
25328;DHT22;13279;51.300;12.394;2023-05-19T11:52:04;20.00;55.20
25328;DHT22;13279;51.300;12.394;2023-05-19T11:54:34;20.50;99.90
25328;DHT22;13279;51.300;12.394;2023-05-19T11:57:02;20.70;1.00
25328;DHT22;13279;51.300;12.394;2023-05-19T11:59:33;20.70;1.00
25328;DHT22;13279;51.300;12.394;2023-05-19T12:04:44;21.00;1.00
25328;DHT22;13279;51.300;12.394;2023-05-19T12:07:20;20.70;99.90
25328;DHT22;13279;51.300;12.394;2023-05-19T12:09:50;20.60;99.90
25328;DHT22;13279;51.300;12.394;2023-05-19T12:12:18;20.50;99.90
25328;DHT22;13279;51.300;12.394;2023-05-19T12:14:49;20.20;99.90
25328;DHT22;13279;51.300;12.394;2023-05-19T12:17:21;20.20;1.00
25328;DHT22;13279;51.300;12.394;2023-05-19T12:19:51;20.00;94.50
25328;DHT22;13279;51.300;12.394;2023-05-19T12:22:19;19.90;99.90
25328;DHT22;13279;51.300;12.394;2023-05-19T12:24:50;19.80;99.90
25328;DHT22;13279;51.300;12.394;2023-05-19T12:27:19;19.70;1.00
25328;DHT22;13279;51.300;12.394;2023-05-19T12:29:49;19.90;16.80
25328;DHT22;13279;51.300;12.394;2023-05-19T12:32:18;20.30;1.00
25328;DHT22;13279;51.300;12.394;2023-05-19T12:34:50;20.90;99.90
25328;DHT22;13279;51.300;12.394;2023-05-19T12:37:18;21.10;1.00
25328;DHT22;13279;51.300;12.394;2023-05-19T12:39:46;21.10;99.90
25328;DHT22;13279;51.300;12.394;2023-05-19T12:42:17;21.30;1.00
25328;DHT22;13279;51.300;12.394;2023-05-19T12:44:48;21.30;1.00
25328;DHT22;13279;51.300;12.394;2023-05-19T12:47:28;21.10;1.00
25328;DHT22;13279;51.300;12.394;2023-05-19T12:50:03;21.50;99.90
25328;DHT22;13279;51.300;12.394;2023-05-19T12:52:41;21.60;1.00
25328;DHT22;13279;51.300;12.394;2023-05-19T12:55:09;21.50;1.00
25328;DHT22;13279;51.300;12.394;2023-05-19T12:57:38;21.40;1.00
25328;DHT22;13279;51.300;12.394;2023-05-19T13:00:12;21.40;1.00
25328;DHT22;13279;51.300;12.394;2023-05-19T13:02:58;21.70;1.00
25328;DHT22;13279;51.300;12.394;2023-05-19T13:05:37;22.20;1.00
25328;DHT22;13279;51.300;12.394;2023-05-19T13:08:10;22.60;19.20
25328;DHT22;13279;51.300;12.394;2023-05-19T13:10:39;22.50;30.00
25328;DHT22;13279;51.300;12.394;2023-05-19T13:13:08;22.40;1.00
25328;DHT22;13279;51.300;12.394;2023-05-19T13:15:37;21.90;1.00
25328;DHT22;13279;51.300;12.394;2023-05-19T13:18:08;22.50;15.90
25328;DHT22;13279;51.300;12.394;2023-05-19T13:20:40;22.60;67.70
25328;DHT22;13279;51.300;12.394;2023-05-19T13:23:09;23.00;71.90
25328;DHT22;13279;51.300;12.394;2023-05-19T13:25:38;23.10;89.30
25328;DHT22;13279;51.300;12.394;2023-05-19T13:28:06;22.60;99.90
25328;DHT22;13279;51.300;12.394;2023-05-19T13:30:35;22.70;99.90
25328;DHT22;13279;51.300;12.394;2023-05-19T13:33:04;22.90;99.90
25328;DHT22;13279;51.300;12.394;2023-05-19T13:35:32;22.90;99.90
25328;DHT22;13279;51.300;12.394;2023-05-19T13:38:04;23.40;99.90
25328;DHT22;13279;51.300;12.394;2023-05-19T13:40:33;22.80;99.90
25328;DHT22;13279;51.300;12.394;2023-05-19T13:43:03;21.80;99.90
25328;DHT22;13279;51.300;12.394;2023-05-19T13:45:33;21.30;99.90
25328;DHT22;13279;51.300;12.394;2023-05-19T13:48:04;21.50;99.90
25328;DHT22;13279;51.300;12.394;2023-05-19T13:50:40;21.60;99.90
25328;DHT22;13279;51.300;12.394;2023-05-19T13:53:09;21.10;99.90
25328;DHT22;13279;51.300;12.394;2023-05-19T13:55:37;20.70;99.90
25328;DHT22;13279;51.300;12.394;2023-05-19T13:58:06;20.70;99.90
25328;DHT22;13279;51.300;12.394;2023-05-19T14:00:41;20.80;99.90
25328;DHT22;13279;51.300;12.394;2023-05-19T14:03:09;20.90;99.90
25328;DHT22;13279;51.300;12.394;2023-05-19T14:05:36;21.30;99.90
25328;DHT22;13279;51.300;12.394;2023-05-19T14:08:05;21.80;99.90
25328;DHT22;13279;51.300;12.394;2023-05-19T14:10:36;22.40;99.90
25328;DHT22;13279;51.300;12.394;2023-05-19T14:13:08;22.30;99.90
25328;DHT22;13279;51.300;12.394;2023-05-19T14:15:39;22.00;99.90
25328;DHT22;13279;51.300;12.394;2023-05-19T14:18:07;21.90;99.90
25328;DHT22;13279;51.300;12.394;2023-05-19T14:20:34;22.00;99.90
25328;DHT22;13279;51.300;12.394;2023-05-19T14:23:02;22.30;99.90
25328;DHT22;13279;51.300;12.394;2023-05-19T14:25:30;22.60;99.90
25328;DHT22;13279;51.300;12.394;2023-05-19T14:28:00;23.00;99.90
25328;DHT22;13279;51.300;12.394;2023-05-19T14:30:28;22.50;99.90
25328;DHT22;13279;51.300;12.394;2023-05-19T14:32:55;21.90;99.90
25328;DHT22;13279;51.300;12.394;2023-05-19T14:35:22;20.70;99.90
25328;DHT22;13279;51.300;12.394;2023-05-19T14:37:50;20.20;99.90
25328;DHT22;13279;51.300;12.394;2023-05-19T14:40:18;19.60;99.90
25328;DHT22;13279;51.300;12.394;2023-05-19T14:42:45;19.60;99.90
25328;DHT22;13279;51.300;12.394;2023-05-19T14:45:16;19.90;99.90
25328;DHT22;13279;51.300;12.394;2023-05-19T14:47:48;20.10;99.90
25328;DHT22;13279;51.300;12.394;2023-05-19T14:50:26;20.40;99.90
25328;DHT22;13279;51.300;12.394;2023-05-19T14:52:56;21.00;99.90
25328;DHT22;13279;51.300;12.394;2023-05-19T14:55:29;20.90;99.90
25328;DHT22;13279;51.300;12.394;2023-05-19T14:57:56;21.10;99.90
25328;DHT22;13279;51.300;12.394;2023-05-19T15:00:35;21.00;99.90
25328;DHT22;13279;51.300;12.394;2023-05-19T15:03:14;21.70;99.90
25328;DHT22;13279;51.300;12.394;2023-05-19T15:05:42;21.60;99.90
25328;DHT22;13279;51.300;12.394;2023-05-19T15:08:10;22.10;99.90
25328;DHT22;13279;51.300;12.394;2023-05-19T15:10:37;22.00;99.90
25328;DHT22;13279;51.300;12.394;2023-05-19T15:13:05;21.40;99.90
25328;DHT22;13279;51.300;12.394;2023-05-19T15:15:34;20.70;99.90
25328;DHT22;13279;51.300;12.394;2023-05-19T15:18:06;19.80;99.90
25328;DHT22;13279;51.300;12.394;2023-05-19T15:20:36;19.40;99.90
25328;DHT22;13279;51.300;12.394;2023-05-19T15:23:05;19.30;99.90
25328;DHT22;13279;51.300;12.394;2023-05-19T15:25:33;19.30;99.90
25328;DHT22;13279;51.300;12.394;2023-05-19T15:28:01;19.30;99.90
25328;DHT22;13279;51.300;12.394;2023-05-19T15:30:29;19.30;99.90
25328;DHT22;13279;51.300;12.394;2023-05-19T15:33:01;19.30;99.90
25328;DHT22;13279;51.300;12.394;2023-05-19T15:35:29;19.40;99.90
25328;DHT22;13279;51.300;12.394;2023-05-19T15:37:57;19.40;99.90
25328;DHT22;13279;51.300;12.394;2023-05-19T15:40:31;19.20;99.90
25328;DHT22;13279;51.300;12.394;2023-05-19T15:42:59;18.90;99.90
25328;DHT22;13279;51.300;12.394;2023-05-19T15:45:27;18.90;99.90
25328;DHT22;13279;51.300;12.394;2023-05-19T15:47:55;19.00;99.90
25328;DHT22;13279;51.300;12.394;2023-05-19T15:50:25;19.20;99.90
25328;DHT22;13279;51.300;12.394;2023-05-19T15:52:52;19.50;99.90
25328;DHT22;13279;51.300;12.394;2023-05-19T15:55:20;19.50;99.90
25328;DHT22;13279;51.300;12.394;2023-05-19T15:57:48;19.60;99.90
25328;DHT22;13279;51.300;12.394;2023-05-19T16:00:16;19.50;99.90
25328;DHT22;13279;51.300;12.394;2023-05-19T16:02:45;19.30;99.90
25328;DHT22;13279;51.300;12.394;2023-05-19T16:05:14;19.10;99.90